sensor_id;sensor_type;location;lat;lon;timestamp;pressure;altitude;pressure_sealevel;temperature
77355;BMP280;66422;51.202;19.936;2023-07-29T00:04:52;98701.11;;;17.35
77355;BMP280;66422;51.202;19.936;2023-07-29T00:20:11;98710.78;;;16.54
77355;BMP280;66422;51.202;19.936;2023-07-29T00:35:32;98719.81;;;16.61
77355;BMP280;66422;51.202;19.936;2023-07-29T00:50:56;98720.56;;;16.32
77355;BMP280;66422;51.202;19.936;2023-07-29T01:06:50;98725.48;;;16.33
77355;BMP280;66422;51.202;19.936;2023-07-29T01:22:13;98714.69;;;16.93
77355;BMP280;66422;51.202;19.936;2023-07-29T01:37:39;98715.90;;;17.63
77355;BMP280;66422;51.202;19.936;2023-07-29T01:53:00;98740.34;;;17.89
77355;BMP280;66422;51.202;19.936;2023-07-29T02:08:20;98748.58;;;17.89
77355;BMP280;66422;51.202;19.936;2023-07-29T02:23:40;98750.39;;;18.04
77355;BMP280;66422;51.202;19.936;2023-07-29T02:39:00;98771.45;;;18.52
77355;BMP280;66422;51.202;19.936;2023-07-29T02:54:20;98771.74;;;18.30
77355;BMP280;66422;51.202;19.936;2023-07-29T03:09:39;98778.20;;;18.47
77355;BMP280;66422;51.202;19.936;2023-07-29T03:25:02;98788.15;;;18.53
77355;BMP280;66422;51.202;19.936;2023-07-29T03:40:22;98796.22;;;18.75
77355;BMP280;66422;51.202;19.936;2023-07-29T03:55:42;98799.12;;;18.83
77355;BMP280;66422;51.202;19.936;2023-07-29T04:11:02;98807.69;;;19.09
77355;BMP280;66422;51.202;19.936;2023-07-29T04:26:21;98808.44;;;19.35
77355;BMP280;66422;51.202;19.936;2023-07-29T04:41:41;98807.11;;;19.63
77355;BMP280;66422;51.202;19.936;2023-07-29T04:57:01;98814.86;;;20.04
77355;BMP280;66422;51.202;19.936;2023-07-29T05:12:20;98826.09;;;20.87
77355;BMP280;66422;51.202;19.936;2023-07-29T05:27:40;98850.09;;;21.59
77355;BMP280;66422;51.202;19.936;2023-07-29T05:43:00;98843.19;;;22.58
77355;BMP280;66422;51.202;19.936;2023-07-29T05:58:20;98893.73;;;25.80
77355;BMP280;66422;51.202;19.936;2023-07-29T06:13:40;98886.70;;;26.50
77355;BMP280;66422;51.202;19.936;2023-07-29T06:29:00;98870.48;;;25.12
77355;BMP280;66422;51.202;19.936;2023-07-29T06:44:19;98859.80;;;26.16
77355;BMP280;66422;51.202;19.936;2023-07-29T06:59:39;98879.42;;;23.98
77355;BMP280;66422;51.202;19.936;2023-07-29T07:15:00;98889.94;;;24.76
77355;BMP280;66422;51.202;19.936;2023-07-29T07:30:19;98888.39;;;25.37
77355;BMP280;66422;51.202;19.936;2023-07-29T07:45:39;98895.27;;;25.17
77355;BMP280;66422;51.202;19.936;2023-07-29T08:01:03;98896.05;;;25.10
77355;BMP280;66422;51.202;19.936;2023-07-29T08:16:23;98882.79;;;26.04
77355;BMP280;66422;51.202;19.936;2023-07-29T08:31:43;98870.38;;;26.02
77355;BMP280;66422;51.202;19.936;2023-07-29T08:47:04;98861.61;;;26.89
77355;BMP280;66422;51.202;19.936;2023-07-29T09:02:26;98839.41;;;26.73
77355;BMP280;66422;51.202;19.936;2023-07-29T09:17:46;98831.58;;;27.43
77355;BMP280;66422;51.202;19.936;2023-07-29T09:33:08;98831.69;;;27.77
77355;BMP280;66422;51.202;19.936;2023-07-29T09:48:32;98825.46;;;27.13
77355;BMP280;66422;51.202;19.936;2023-07-29T10:03:52;98820.96;;;28.02
77355;BMP280;66422;51.202;19.936;2023-07-29T10:19:12;98820.98;;;29.06
77355;BMP280;66422;51.202;19.936;2023-07-29T10:34:39;98806.91;;;29.29
77355;BMP280;66422;51.202;19.936;2023-07-29T10:49:59;98789.48;;;28.78
77355;BMP280;66422;51.202;19.936;2023-07-29T11:05:19;98770.64;;;29.66
77355;BMP280;66422;51.202;19.936;2023-07-29T11:20:38;98770.73;;;28.71
77355;BMP280;66422;51.202;19.936;2023-07-29T11:35:59;98756.67;;;29.28
77355;BMP280;66422;51.202;19.936;2023-07-29T11:51:25;98744.74;;;30.16
77355;BMP280;66422;51.202;19.936;2023-07-29T12:06:45;98727.27;;;29.16
77355;BMP280;66422;51.202;19.936;2023-07-29T12:22:07;98710.54;;;29.70
77355;BMP280;66422;51.202;19.936;2023-07-29T12:37:33;98702.35;;;28.80
77355;BMP280;66422;51.202;19.936;2023-07-29T12:52:53;98693.27;;;29.46
77355;BMP280;66422;51.202;19.936;2023-07-29T13:08:12;98683.92;;;29.18
77355;BMP280;66422;51.202;19.936;2023-07-29T13:23:32;98668.02;;;29.29
77355;BMP280;66422;51.202;19.936;2023-07-29T13:38:53;98653.36;;;29.36
77355;BMP280;66422;51.202;19.936;2023-07-29T13:54:12;98646.75;;;29.91
77355;BMP280;66422;51.202;19.936;2023-07-29T14:09:32;98626.13;;;29.58
77355;BMP280;66422;51.202;19.936;2023-07-29T14:24:51;98615.52;;;29.83
77355;BMP280;66422;51.202;19.936;2023-07-29T14:40:13;98597.30;;;29.49
77355;BMP280;66422;51.202;19.936;2023-07-29T14:55:33;98589.52;;;30.25
77355;BMP280;66422;51.202;19.936;2023-07-29T15:10:52;98589.72;;;30.07
77355;BMP280;66422;51.202;19.936;2023-07-29T15:26:13;98575.38;;;29.52
77355;BMP280;66422;51.202;19.936;2023-07-29T15:41:33;98567.40;;;28.91
77355;BMP280;66422;51.202;19.936;2023-07-29T15:56:55;98565.86;;;28.69
77355;BMP280;66422;51.202;19.936;2023-07-29T16:12:15;98557.41;;;28.75
77355;BMP280;66422;51.202;19.936;2023-07-29T16:27:34;98547.88;;;28.43
77355;BMP280;66422;51.202;19.936;2023-07-29T16:42:54;98533.15;;;28.06
77355;BMP280;66422;51.202;19.936;2023-07-29T16:58:15;98515.42;;;27.26
77355;BMP280;66422;51.202;19.936;2023-07-29T17:13:35;98527.70;;;26.76
77355;BMP280;66422;51.202;19.936;2023-07-29T17:28:55;98523.55;;;26.72
77355;BMP280;66422;51.202;19.936;2023-07-29T17:44:14;98514.05;;;26.01
77355;BMP280;66422;51.202;19.936;2023-07-29T17:59:34;98524.65;;;25.32
77355;BMP280;66422;51.202;19.936;2023-07-29T18:14:54;98521.61;;;24.68
77355;BMP280;66422;51.202;19.936;2023-07-29T18:30:13;98531.33;;;24.24
77355;BMP280;66422;51.202;19.936;2023-07-29T18:45:34;98532.25;;;23.97
77355;BMP280;66422;51.202;19.936;2023-07-29T19:00:54;98531.80;;;23.60
77355;BMP280;66422;51.202;19.936;2023-07-29T19:16:14;98538.34;;;23.39
77355;BMP280;66422;51.202;19.936;2023-07-29T19:31:40;98566.92;;;23.41
77355;BMP280;66422;51.202;19.936;2023-07-29T19:47:01;98589.17;;;22.80
77355;BMP280;66422;51.202;19.936;2023-07-29T20:02:20;98605.67;;;22.17
77355;BMP280;66422;51.202;19.936;2023-07-29T20:17:40;98605.78;;;22.10
77355;BMP280;66422;51.202;19.936;2023-07-29T20:33:02;98613.74;;;21.73
77355;BMP280;66422;51.202;19.936;2023-07-29T20:48:22;98592.56;;;21.91
77355;BMP280;66422;51.202;19.936;2023-07-29T21:03:42;98580.30;;;21.75
77355;BMP280;66422;51.202;19.936;2023-07-29T21:19:02;98609.49;;;21.28
77355;BMP280;66422;51.202;19.936;2023-07-29T21:34:21;98614.48;;;21.26
77355;BMP280;66422;51.202;19.936;2023-07-29T21:49:41;98626.84;;;21.03
77355;BMP280;66422;51.202;19.936;2023-07-29T22:05:01;98622.04;;;20.59
77355;BMP280;66422;51.202;19.936;2023-07-29T22:20:21;98623.80;;;20.28
77355;BMP280;66422;51.202;19.936;2023-07-29T22:35:40;98616.80;;;19.92
77355;BMP280;66422;51.202;19.936;2023-07-29T22:51:00;98607.25;;;19.84
77355;BMP280;66422;51.202;19.936;2023-07-29T23:06:19;98608.85;;;19.54
77355;BMP280;66422;51.202;19.936;2023-07-29T23:21:39;98612.52;;;19.54
77355;BMP280;66422;51.202;19.936;2023-07-29T23:36:59;98605.86;;;19.63
77355;BMP280;66422;51.202;19.936;2023-07-29T23:52:18;98611.48;;;19.54
